Time;durP1;ratioP1;P1;durP2;ratioP2;P2;SDS_P1;SDS_P2;PMS_P1;PMS_P2;Temp;Humidity;BMP_temperature;BMP_pressure;BME280_temperature;BME280_humidity;BME280_pressure;Samples;Min_cycle;Max_cycle;Signal;HPM_P1;HPM_P2
2021/10/07 00:01:49;;;;;;;;;35.25;30.75;;;;;6.71;41.61;102993.22;5073694;28;12464;-72
2021/10/07 00:04:44;;;;;;;;;29.25;29.25;;;;;6.90;41.69;102987.22;5071980;28;11522;-72
2021/10/07 00:07:40;;;;;;;;;17.75;14.75;;;;;6.68;42.10;102984.38;5072618;28;11512;-72
2021/10/07 00:10:35;;;;;;;;;18.75;18.75;;;;;6.58;42.64;102978.69;5059577;28;11627;-72
2021/10/07 00:13:31;;;;;;;;;21.25;19.50;;;;;6.59;42.45;102994.09;5072674;28;11672;-73
2021/10/07 00:16:26;;;;;;;;;14.25;13.50;;;;;6.55;42.87;102981.13;5072412;28;12337;-73
2021/10/07 00:18:54;;;;;;;;;19.00;19.00;;;;;6.58;42.35;102992.44;5055596;28;11547;-71
2021/10/07 00:21:50;;;;;;;;;17.00;15.00;;;;;6.58;42.50;102980.59;5059258;28;11566;-75
2021/10/07 00:24:47;;;;;;;;;7.00;7.00;;;;;6.53;42.73;102975.88;5072281;28;11577;-74
2021/10/07 00:27:43;;;;;;;;;13.50;13.50;;;;;6.59;42.80;102985.84;5052362;28;11470;-74
2021/10/07 00:30:17;;;;;;;;;13.50;13.50;;;;;6.35;42.59;102976.06;5071025;28;11582;-74
2021/10/07 00:33:23;;;;;;;;;6.50;6.50;;;;;6.35;42.91;102974.16;5072346;28;11700;-72
2021/10/07 00:36:39;;;;;;;;;10.50;9.00;;;;;6.41;42.74;102973.16;5073015;28;11523;-73
2021/10/07 00:39:21;;;;;;;;;7.00;7.00;;;;;6.31;43.00;102973.00;5073397;28;11540;-73
2021/10/07 00:42:18;;;;;;;;;10.25;10.25;;;;;6.27;42.90;102979.22;5071973;28;11527;-73
2021/10/07 00:45:14;;;;;;;;;20.00;17.50;;;;;6.28;42.87;102978.97;5071207;28;11462;-73
2021/10/07 00:48:09;;;;;;;;;29.50;26.00;;;;;6.26;43.24;102975.63;5058441;28;11593;-72
2021/10/07 00:51:05;;;;;;;;;14.75;14.00;;;;;6.24;43.47;102976.97;5072053;28;11581;-73
2021/10/07 00:54:00;;;;;;;;;8.25;8.25;;;;;6.31;42.87;102975.75;5058753;28;11546;-73
2021/10/07 00:56:56;;;;;;;;;5.00;5.00;;;;;6.28;43.40;102972.63;5058299;28;12244;-72
2021/10/07 00:59:52;;;;;;;;;13.50;13.50;;;;;6.14;42.97;102977.63;5071040;28;12335;-73
2021/10/07 01:02:48;;;;;;;;;9.75;9.75;;;;;6.14;43.21;102972.13;5058561;28;11580;-73
2021/10/07 01:05:45;;;;;;;;;14.00;13.25;;;;;6.13;42.91;102981.44;5071769;28;11569;-74
2021/10/07 01:08:40;;;;;;;;;17.50;17.00;;;;;6.13;43.06;102970.44;5071041;28;11574;-74
2021/10/07 01:11:37;;;;;;;;;11.00;11.00;;;;;6.03;43.17;102970.25;5071809;28;11586;-73
2021/10/07 01:14:47;;;;;;;;;5.00;5.00;;;;;5.99;43.89;102972.66;5058241;28;11562;-73
2021/10/07 01:17:43;;;;;;;;;6.50;5.75;;;;;5.94;43.51;102963.47;5070524;28;11626;-73
2021/10/07 01:20:41;;;;;;;;;16.50;16.50;;;;;5.92;43.55;102965.66;5071836;28;11503;-73
2021/10/07 01:23:41;;;;;;;;;29.00;28.75;;;;;6.02;43.36;102974.09;5071909;28;12368;-73
2021/10/07 01:26:37;;;;;;;;;26.50;26.00;;;;;5.92;43.74;102976.63;5070916;28;11576;-76
2021/10/07 01:29:32;;;;;;;;;36.25;33.00;;;;;6.01;43.80;102975.16;5071419;28;12320;-73
2021/10/07 01:32:28;;;;;;;;;33.75;32.50;;;;;5.96;43.63;102978.63;5075275;28;11602;-73
2021/10/07 01:35:24;;;;;;;;;58.00;50.33;;;;;5.92;43.92;102988.44;5075433;28;11581;-73
2021/10/07 01:38:19;;;;;;;;;36.50;36.50;;;;;5.93;43.76;102989.28;5074837;28;8849;-74
2021/10/07 01:41:15;;;;;;;;;18.25;17.25;;;;;5.93;43.76;102981.03;5074793;28;11590;-73
2021/10/07 01:44:10;;;;;;;;;16.00;16.00;;;;;5.71;44.12;102989.91;5076470;28;11645;-75
2021/10/07 01:47:06;;;;;;;;;8.75;8.75;;;;;5.82;44.14;102980.78;5075699;28;11595;-74
2021/10/07 01:50:04;;;;;;;;;9.75;9.75;;;;;5.76;44.20;102972.72;5062069;28;12188;-74
2021/10/07 01:52:59;;;;;;;;;16.25;16.25;;;;;5.77;44.03;102977.13;5075797;28;11513;-74
2021/10/07 01:55:55;;;;;;;;;29.25;25.25;;;;;5.84;44.01;102977.81;5075309;28;12246;-73
2021/10/07 01:58:51;;;;;;;;;36.25;33.00;;;;;5.84;44.30;102978.66;5074659;28;11576;-73
2021/10/07 02:01:38;;;;;;;;;28.25;21.25;;;;;5.86;44.30;102987.47;5061643;28;11547;-73
2021/10/07 02:04:34;;;;;;;;;17.50;17.50;;;;;5.81;44.14;102983.78;5075346;28;11500;-73
2021/10/07 02:07:30;;;;;;;;;18.00;15.25;;;;;5.88;44.53;102984.47;5061941;28;11521;-73
2021/10/07 02:10:25;;;;;;;;;14.00;13.75;;;;;5.73;44.32;102982.25;5061855;28;11534;-74
2021/10/07 02:13:21;;;;;;;;;16.25;16.25;;;;;5.79;44.38;102992.25;5075152;28;11514;-73
2021/10/07 02:15:49;;;;;;;;;13.50;13.50;;;;;5.80;44.31;102987.59;5058583;28;11561;-73
2021/10/07 02:18:45;;;;;;;;;11.75;11.75;;;;;5.76;44.41;102990.03;5075741;28;12438;-73
2021/10/07 02:21:40;;;;;;;;;11.50;11.50;;;;;5.67;44.54;102985.13;5074954;28;11522;-73
2021/10/07 02:24:37;;;;;;;;;11.75;11.75;;;;;5.76;44.71;102980.94;5074942;28;11677;-74
2021/10/07 02:27:33;;;;;;;;;9.00;9.00;;;;;5.80;44.78;102985.69;5074732;28;12291;-74
2021/10/07 02:30:29;;;;;;;;;9.00;9.00;;;;;5.69;44.80;102992.06;5074561;28;11652;-74
2021/10/07 02:33:25;;;;;;;;;12.50;11.75;;;;;5.67;45.06;102983.22;5074578;28;12383;-74
2021/10/07 02:36:22;;;;;;;;;15.25;15.00;;;;;5.66;44.91;102994.44;5074326;28;11648;-73
2021/10/07 02:39:18;;;;;;;;;12.00;12.00;;;;;5.56;45.11;102990.41;5075198;28;11576;-74
2021/10/07 02:42:14;;;;;;;;;32.25;32.25;;;;;5.60;45.03;102988.03;5073905;28;11583;-73
2021/10/07 02:45:12;;;;;;;;;17.25;17.25;;;;;5.72;44.72;102997.06;5061142;28;11581;-73
2021/10/07 02:48:08;;;;;;;;;14.25;13.25;;;;;5.52;44.95;102994.72;5060753;28;11592;-74
2021/10/07 02:51:03;;;;;;;;;14.00;13.75;;;;;5.62;45.12;103002.34;5075263;28;12292;-72
2021/10/07 02:53:59;;;;;;;;;13.50;13.50;;;;;5.49;45.19;102997.09;5074278;28;11674;-73
2021/10/07 02:56:55;;;;;;;;;13.00;12.00;;;;;5.50;45.44;103002.34;5073278;28;11639;-73
2021/10/07 02:59:50;;;;;;;;;15.00;15.00;;;;;5.56;45.54;103009.63;5060917;28;11544;-72
2021/10/07 03:02:19;;;;;;;;;13.00;12.25;;;;;5.57;45.64;103008.53;5074848;28;12235;-73
2021/10/07 03:05:14;;;;;;;;;9.25;9.25;;;;;5.42;45.78;103008.19;5074048;28;11555;-74
2021/10/07 03:08:10;;;;;;;;;19.25;17.75;;;;;5.34;45.89;103016.78;5074145;28;11442;-76
2021/10/07 03:11:05;;;;;;;;;50.67;43.33;;;;;5.22;46.04;103015.97;5079096;28;11585;-72
2021/10/07 03:14:01;;;;;;;;;43.33;42.00;;;;;5.31;46.04;103009.06;5070795;28;8841;-73
2021/10/07 03:16:56;;;;;;;;;51.00;44.00;;;;;5.25;46.28;103010.84;5083304;28;11580;-74
2021/10/07 03:19:24;;;;;;;;;39.67;37.33;;;;;5.34;46.36;103014.06;5075516;28;9574;-73
2021/10/07 03:22:21;;;;;;;;;34.33;31.33;;;;;5.36;46.61;103017.38;5073807;28;11597;-73
2021/10/07 03:24:49;;;;;;;;;35.50;34.00;;;;;5.42;46.07;103015.59;5057170;28;11672;-74
2021/10/07 03:27:44;;;;;;;;;25.50;25.50;;;;;5.38;46.41;103009.78;5073411;28;11579;-73
2021/10/07 03:30:40;;;;;;;;;18.25;17.75;;;;;5.35;46.17;103012.13;5088426;28;12293;-75
2021/10/07 03:33:16;;;;;;;;;17.50;17.50;;;;;5.43;46.13;103018.09;5095058;28;11596;-74
2021/10/07 03:36:12;;;;;;;;;15.00;15.00;;;;;5.41;46.60;103009.28;5092820;28;11597;-73
2021/10/07 03:39:08;;;;;;;;;28.00;28.00;;;;;5.30;46.61;103018.38;5087774;28;11557;-72
2021/10/07 03:42:03;;;;;;;;;47.00;38.33;;;;;5.41;46.61;103016.69;5085777;28;11495;-74
2021/10/07 03:45:02;;;;;;;;;44.67;38.67;;;;;5.21;46.98;103020.63;5093584;28;11755;-74
2021/10/07 03:47:58;;;;;;;;;21.25;21.00;;;;;5.23;46.95;103006.66;5080075;28;8922;-74
2021/10/07 03:50:27;;;;;;;;;16.75;16.75;;;;;5.22;46.84;103008.59;5077205;28;12276;-74
2021/10/07 03:53:25;;;;;;;;;29.33;25.33;;;;;5.38;46.96;103017.16;5077893;28;12350;-74
2021/10/07 03:56:21;;;;;;;;;42.67;32.67;;;;;5.34;46.40;103014.06;5072583;28;12366;-74
2021/10/07 03:59:16;;;;;;;;;36.67;33.33;;;;;5.20;47.07;103020.84;5072007;28;11509;-74
2021/10/07 04:02:12;;;;;;;;;20.75;20.00;;;;;5.26;47.15;103008.94;5078003;28;11547;-74
2021/10/07 04:05:08;;;;;;;;;30.00;26.25;;;;;5.14;47.07;103019.09;5093188;28;11582;-74
2021/10/07 04:08:04;;;;;;;;;19.00;16.25;;;;;5.15;47.78;103024.31;5093186;28;11528;-74
2021/10/07 04:10:50;;;;;;;;;32.67;32.33;;;;;5.30;47.33;103021.94;5092793;28;11592;-74
2021/10/07 04:13:47;;;;;;;;;26.50;25.75;;;;;5.39;47.05;103022.41;5093090;28;11504;-73
2021/10/07 04:16:43;;;;;;;;;32.67;30.67;;;;;5.32;47.02;103024.44;5076648;28;11515;-73
2021/10/07 04:19:10;;;;;;;;;30.67;25.33;;;;;5.37;46.87;103021.81;5075687;28;11518;-74
2021/10/07 04:22:06;;;;;;;;;24.50;24.50;;;;;5.46;46.86;103025.88;5079794;28;11672;-73
2021/10/07 04:25:02;;;;;;;;;45.67;37.67;;;;;5.53;47.21;103023.00;5093009;28;11515;-72
2021/10/07 04:27:57;;;;;;;;;37.67;37.67;;;;;5.42;46.94;103016.44;5091664;28;8831;-74
2021/10/07 04:30:53;;;;;;;;;26.50;24.75;;;;;6.26;65.47;103027.84;5078145;28;12360;-73
2021/10/07 04:33:48;;;;;;;;;42.00;39.50;;;;;7.23;59.11;103037.81;5092604;28;11547;-73
2021/10/07 04:36:44;;;;;;;;;39.00;37.50;;;;;7.10;50.53;103044.50;5092111;28;11534;-72
2021/10/07 04:39:39;;;;;;;;;27.50;26.25;;;;;8.12;74.79;103025.81;5079202;28;11522;-72
2021/10/07 04:42:35;;;;;;;;;45.00;41.00;;;;;7.65;58.27;103031.81;5091739;28;11555;-72
2021/10/07 04:45:05;;;;;;;;;54.00;41.00;;;;;7.30;49.30;103049.50;5093509;28;11566;-71
2021/10/07 04:47:33;;;;;;;;;32.75;31.75;;;;;8.08;63.98;103040.13;5092274;28;11551;-71
2021/10/07 04:50:01;;;;;;;;;54.25;42.25;;;;;8.84;68.65;103047.59;5075632;28;11517;-72
2021/10/07 04:52:29;;;;;;;;;39.75;35.50;;;;;8.06;51.66;103052.50;5092155;28;11544;-72
2021/10/07 04:54:57;;;;;;;;;32.50;31.75;;;;;7.60;50.06;103068.41;5093314;28;11532;-72
2021/10/07 04:57:25;;;;;;;;;34.75;33.25;;;;;7.49;52.26;103053.63;5092151;28;11531;-72
2021/10/07 04:59:53;;;;;;;;;36.50;33.00;;;;;7.60;47.47;103068.41;5093175;28;11500;-71
2021/10/07 05:02:21;;;;;;;;;30.00;28.50;;;;;7.56;46.99;103058.13;5093277;28;11579;-73
2021/10/07 05:04:53;;;;;;;;;24.00;23.50;;;;;7.16;48.79;103057.25;5092153;28;11031;-71
2021/10/07 05:07:20;;;;;;;;;48.25;38.75;;;;;7.44;51.57;103070.09;5056351;28;11533;-69
2021/10/07 05:10:16;;;;;;;;;21.75;20.75;;;;;7.43;46.61;103065.66;5071064;28;11523;-73
2021/10/07 05:13:06;;;;;;;;;38.00;36.50;;;;;6.97;45.89;103056.66;5078350;28;11511;-74
2021/10/07 05:16:02;;;;;;;;;50.50;40.00;;;;;6.77;46.78;103048.06;5091093;28;11550;-73
2021/10/07 05:19:02;;;;;;;;;32.00;31.00;;;;;6.62;46.74;103061.53;5036064;28;11625;-72
2021/10/07 05:21:58;;;;;;;;;31.25;27.75;;;;;6.47;46.63;103053.00;5043060;28;11681;-73
2021/10/07 05:24:53;;;;;;;;;32.50;31.25;;;;;6.57;47.05;103054.03;5051652;28;11622;-73
2021/10/07 05:27:49;;;;;;;;;30.75;25.75;;;;;6.51;46.48;103048.66;5051699;28;12368;-72
2021/10/07 05:30:44;;;;;;;;;24.25;23.50;;;;;6.52;46.05;103053.09;5052212;28;11610;-73
2021/10/07 05:33:12;;;;;;;;;23.75;20.75;;;;;6.66;46.28;103052.53;5052960;28;11623;-74
2021/10/07 05:36:08;;;;;;;;;26.25;25.50;;;;;6.67;45.75;103045.13;5051521;28;11585;-75
2021/10/07 05:39:04;;;;;;;;;28.00;28.00;;;;;6.79;45.19;103045.91;5047387;28;11586;-74
2021/10/07 05:41:59;;;;;;;;;12.50;12.00;;;;;6.72;45.29;103042.47;5072357;28;12295;-73
2021/10/07 05:44:58;;;;;;;;;23.25;23.25;;;;;6.90;45.39;103039.50;5071525;28;11599;-77
2021/10/07 05:47:53;;;;;;;;;46.25;41.50;;;;;6.79;44.86;103047.81;5071401;28;11667;-79
2021/10/07 05:50:49;;;;;;;;;35.50;32.50;;;;;7.01;44.60;103054.25;5072350;28;11718;-78
2021/10/07 05:53:16;;;;;;;;;28.00;27.00;;;;;7.01;44.40;103051.50;5072478;28;11627;-80
2021/10/07 05:56:12;;;;;;;;;40.25;36.00;;;;;7.02;44.12;103044.91;5071242;28;11612;-79
2021/10/07 05:58:45;;;;;;;;;27.50;27.00;;;;;7.11;43.59;103059.09;5055311;28;11624;-79
2021/10/07 06:01:41;;;;;;;;;40.75;31.75;;;;;7.27;43.73;103041.72;5072219;28;11666;-79
2021/10/07 06:04:37;;;;;;;;;38.50;35.50;;;;;7.39;42.89;103056.25;5071328;28;11626;-79
2021/10/07 06:07:11;;;;;;;;;41.75;40.25;;;;;7.30;43.03;103040.41;5072140;28;12363;-82
2021/10/07 06:09:40;;;;;;;;;51.00;41.50;;;;;7.73;43.12;103034.13;5072101;28;11601;-81
2021/10/07 06:12:40;;;;;;;;;57.00;45.50;;;;;7.70;42.01;103024.47;5071197;28;11709;-79
2021/10/07 06:19:01;;;;;;;;;44.25;36.25;;;;;8.13;41.49;103030.22;5054564;28;11577;-82
2021/10/07 06:21:42;;;;;;;;;28.75;22.00;;;;;7.97;40.60;103043.81;5055717;28;11648;-75
2021/10/07 06:24:38;;;;;;;;;43.00;38.75;;;;;8.00;40.00;103036.97;5054748;28;11608;-75
2021/10/07 06:27:34;;;;;;;;;23.25;15.25;;;;;7.88;39.67;103044.53;5054725;28;11574;-75
2021/10/07 06:30:30;;;;;;;;;10.50;10.50;;;;;8.02;39.63;103041.13;5055608;28;11670;-73
2021/10/07 06:33:26;;;;;;;;;23.00;23.00;;;;;8.27;39.32;103045.28;5054592;28;11564;-77
2021/10/07 06:36:21;;;;;;;;;20.00;20.00;;;;;8.33;39.61;103041.50;5040835;28;11714;-76
2021/10/07 06:39:17;;;;;;;;;52.50;42.75;;;;;8.53;39.41;103040.94;5054675;28;11591;-77
2021/10/07 06:41:54;;;;;;;;;73.00;53.50;;;;;8.86;38.67;103037.94;5055667;28;11619;-77
2021/10/07 06:44:49;;;;;;;;;50.25;43.75;;;;;8.90;37.78;103041.84;5053573;28;11630;-76
2021/10/07 06:47:45;;;;;;;;;38.75;35.25;;;;;8.95;37.65;103035.53;5054362;28;11641;-76
2021/10/07 06:50:42;;;;;;;;;41.00;37.50;;;;;9.29;36.53;103035.25;5040974;28;11635;-77
2021/10/07 06:53:38;;;;;;;;;22.00;22.00;;;;;9.57;35.29;103054.22;5054352;28;11591;-76
2021/10/07 06:56:06;;;;;;;;;16.50;16.00;;;;;9.53;33.67;103038.47;5055031;28;11602;-76
2021/10/07 06:59:02;;;;;;;;;41.00;36.25;;;;;9.86;33.81;103034.47;5040794;28;11640;-77
2021/10/07 07:01:58;;;;;;;;;22.00;20.00;;;;;10.02;32.98;103038.97;5054065;28;11718;-78
2021/10/07 07:04:54;;;;;;;;;17.50;17.50;;;;;10.09;32.77;103030.44;5054089;28;11571;-78
2021/10/07 07:07:49;;;;;;;;;24.00;23.25;;;;;10.39;32.74;103054.63;5053254;28;11552;-75
2021/10/07 07:10:17;;;;;;;;;14.75;14.75;;;;;10.38;32.30;103052.97;5053976;28;11618;-75
2021/10/07 07:13:13;;;;;;;;;23.75;23.75;;;;;10.51;32.23;103046.94;5053929;28;11642;-75
2021/10/07 07:16:09;;;;;;;;;23.25;19.75;;;;;10.43;31.86;103056.59;5052423;28;11592;-73
2021/10/07 07:19:05;;;;;;;;;26.00;22.25;;;;;10.67;31.96;103045.03;5050085;28;12305;-76
2021/10/07 07:21:33;;;;;;;;;22.25;21.25;;;;;10.88;32.09;103046.69;5037076;28;11519;-73
2021/10/07 07:24:01;;;;;;;;;26.25;25.50;;;;;11.06;31.95;103037.84;5054737;28;11528;-72
2021/10/07 07:26:31;;;;;;;;;23.50;23.50;;;;;11.22;31.96;103046.97;5054522;28;11676;-75
2021/10/07 07:29:26;;;;;;;;;2.75;2.75;;;;;11.05;31.41;103033.41;5053288;28;11524;-73
2021/10/07 07:31:54;;;;;;;;;22.25;22.25;;;;;10.81;31.73;103043.34;5054802;28;11514;-73
2021/10/07 07:34:49;;;;;;;;;16.00;14.00;;;;;10.97;31.48;103050.59;5053567;28;12302;-76
2021/10/07 07:37:45;;;;;;;;;18.75;17.50;;;;;11.05;31.79;103027.88;5053158;28;11520;-74
2021/10/07 07:40:41;;;;;;;;;18.50;18.00;;;;;11.13;31.03;103035.63;5053100;28;11546;-76
2021/10/07 07:43:38;;;;;;;;;14.00;14.00;;;;;11.26;30.82;103039.75;5053536;28;11485;-71
2021/10/07 07:46:06;;;;;;;;;20.50;20.50;;;;;11.00;30.62;103027.88;5052846;28;11499;-68
2021/10/07 07:49:02;;;;;;;;;21.00;19.75;;;;;11.50;30.26;103028.94;5053274;28;11652;-68
2021/10/07 07:51:58;;;;;;;;;12.00;12.00;;;;;11.63;29.62;103022.78;5039998;28;12231;-72
2021/10/07 07:54:54;;;;;;;;;17.00;17.00;;;;;11.94;29.07;103026.31;5040249;28;11549;-68
2021/10/07 07:57:50;;;;;;;;;16.25;15.50;;;;;12.07;29.32;103024.88;5052626;28;11617;-69
2021/10/07 08:00:47;;;;;;;;;26.00;21.00;;;;;12.11;28.90;103025.97;5052860;28;11218;-72
2021/10/07 08:03:28;;;;;;;;;33.00;28.75;;;;;11.94;28.79;103015.22;5053734;28;11563;-70
2021/10/07 08:06:24;;;;;;;;;37.75;34.75;;;;;12.21;29.53;103014.00;5052846;28;11552;-73
2021/10/07 08:09:20;;;;;;;;;34.75;34.25;;;;;12.14;28.57;103014.31;5052301;28;11580;-70
2021/10/07 08:12:16;;;;;;;;;23.25;22.75;;;;;12.43;28.31;103005.28;5053528;28;11589;-71
2021/10/07 08:15:11;;;;;;;;;26.00;24.50;;;;;12.44;27.67;103006.94;5052817;28;11592;-70
2021/10/07 08:18:07;;;;;;;;;16.50;16.50;;;;;12.31;27.37;103013.94;5051981;28;11562;-70
2021/10/07 08:21:03;;;;;;;;;18.75;17.50;;;;;12.46;26.74;103013.00;5053912;28;11139;-70
2021/10/07 08:24:04;;;;;;;;;20.75;17.25;;;;;12.56;27.61;103015.72;5052456;28;11146;-70
2021/10/07 08:27:02;;;;;;;;;30.00;29.00;;;;;12.75;27.64;103007.53;5051538;28;11304;-70
2021/10/07 08:29:58;;;;;;;;;22.25;22.25;;;;;12.71;26.58;103017.56;5052403;28;11570;-70
2021/10/07 08:32:54;;;;;;;;;25.75;25.75;;;;;12.98;26.36;103009.56;5039069;28;11141;-71
2021/10/07 08:35:50;;;;;;;;;23.50;21.50;;;;;12.68;26.05;103004.25;5052329;28;11541;-72
2021/10/07 08:38:18;;;;;;;;;30.75;29.50;;;;;12.97;26.14;103002.38;5035697;28;11327;-72
2021/10/07 08:41:14;;;;;;;;;29.25;24.50;;;;;13.10;25.36;102998.06;5037972;28;11661;-71
2021/10/07 08:44:10;;;;;;;;;25.75;23.75;;;;;13.21;24.87;103002.44;5040049;28;11348;-72
2021/10/07 08:47:05;;;;;;;;;19.75;19.75;;;;;13.48;24.58;102993.53;5052007;28;11196;-72
2021/10/07 08:50:01;;;;;;;;;26.00;24.75;;;;;13.55;24.39;102998.75;5051962;28;11784;-73
2021/10/07 08:52:56;;;;;;;;;31.75;29.50;;;;;13.62;24.15;102996.44;5048022;28;10876;-71
2021/10/07 08:55:52;;;;;;;;;37.50;35.00;;;;;13.65;23.97;103004.22;5051610;28;11340;-72
2021/10/07 08:58:20;;;;;;;;;29.50;29.50;;;;;13.53;24.12;103012.13;5035349;28;11227;-72
2021/10/07 09:01:36;;;;;;;;;54.25;42.25;;;;;13.55;23.50;102996.78;5052011;28;11213;-72
2021/10/07 09:04:16;;;;;;;;;31.25;27.00;;;;;13.49;23.44;103008.25;5055925;28;11577;-70
2021/10/07 09:07:11;;;;;;;;;13.50;13.50;;;;;13.95;23.73;102996.59;5051572;28;11054;-71
2021/10/07 09:10:07;;;;;;;;;18.50;13.50;;;;;14.52;23.36;102984.41;5020160;28;10503;-72
2021/10/07 09:13:05;;;;;;;;;10.50;10.50;;;;;14.77;22.83;102994.31;5033362;28;10520;-70
2021/10/07 09:15:51;;;;;;;;;37.00;33.75;;;;;14.38;23.02;102995.44;5049783;28;10300;-70
2021/10/07 09:18:47;;;;;;;;;39.25;35.25;;;;;14.87;23.23;102987.72;5038317;28;11377;-71
2021/10/07 09:21:15;;;;;;;;;36.75;33.75;;;;;14.91;23.53;102981.25;5052834;28;10929;-70
2021/10/07 09:23:43;;;;;;;;;12.50;12.25;;;;;14.88;22.69;102993.03;5035265;28;10897;-72
2021/10/07 09:26:12;;;;;;;;;12.75;11.25;;;;;14.83;22.99;102989.50;5052412;28;10195;-71
2021/10/07 09:28:56;;;;;;;;;26.25;21.25;;;;;14.53;22.47;102990.81;5052719;28;10594;-71
2021/10/07 09:31:30;;;;;;;;;15.50;14.50;;;;;14.70;23.15;102986.34;5035450;28;10123;-71
2021/10/07 09:34:06;;;;;;;;;13.75;13.50;;;;;15.11;23.08;102995.97;5052823;28;9956;-71
2021/10/07 09:36:34;;;;;;;;;11.00;11.00;;;;;15.51;22.90;102983.22;5052125;28;10306;-71
2021/10/07 09:39:04;;;;;;;;;22.50;18.75;;;;;15.24;22.57;102989.59;5052564;28;10137;-71
2021/10/07 09:41:33;;;;;;;;;38.00;33.50;;;;;14.89;23.11;102977.97;5035032;28;10108;-71
2021/10/07 09:44:05;;;;;;;;;26.75;23.00;;;;;14.97;22.72;102987.59;5052718;28;10800;-72
2021/10/07 09:46:47;;;;;;;;;24.00;24.00;;;;;14.89;22.90;102977.13;5052512;28;10233;-71
2021/10/07 09:49:16;;;;;;;;;22.75;22.75;;;;;15.68;23.11;102975.09;5052489;28;10193;-72
2021/10/07 09:51:54;;;;;;;;;21.00;21.00;;;;;15.46;22.35;102989.72;5035838;28;10374;-72
2021/10/07 09:54:26;;;;;;;;;16.00;16.00;;;;;15.74;23.11;102985.03;5038885;28;10225;-73
2021/10/07 09:56:57;;;;;;;;;17.00;15.25;;;;;15.24;22.54;102987.63;5056557;28;9728;-70
2021/10/07 09:59:27;;;;;;;;;14.25;14.25;;;;;15.14;22.87;102984.22;5056402;28;10012;-70
2021/10/07 10:01:56;;;;;;;;;15.25;15.25;;;;;15.34;22.84;102985.81;5056560;28;9803;-70
2021/10/07 10:04:26;;;;;;;;;27.25;20.00;;;;;15.90;22.96;102973.53;5056231;28;9991;-72
2021/10/07 10:06:54;;;;;;;;;16.75;16.75;;;;;15.48;23.07;102967.94;5056255;28;10210;-70
2021/10/07 10:09:23;;;;;;;;;11.00;11.00;;;;;15.82;23.25;102978.72;5038648;28;10037;-72
2021/10/07 10:11:51;;;;;;;;;8.75;8.75;;;;;15.87;22.77;102966.59;5055860;28;9918;-72
2021/10/07 10:14:23;;;;;;;;;11.00;11.00;;;;;15.82;22.51;102972.31;5038837;28;9724;-72
2021/10/07 10:16:51;;;;;;;;;11.00;11.00;;;;;15.75;22.22;102966.31;5056103;28;9621;-71
2021/10/07 10:19:20;;;;;;;;;11.75;10.75;;;;;16.11;22.35;102950.44;5038583;28;9482;-72
2021/10/07 10:21:49;;;;;;;;;11.25;11.25;;;;;15.87;22.44;102952.63;5056112;28;9616;-71
2021/10/07 10:24:17;;;;;;;;;8.00;8.00;;;;;15.98;22.13;102950.47;5056213;28;9638;-71
2021/10/07 10:27:02;;;;;;;;;16.25;16.25;;;;;15.97;22.49;102954.41;5042048;28;9397;-72
2021/10/07 10:30:18;;;;;;;;;21.00;18.75;;;;;16.13;21.59;102956.53;5053397;28;9604;-71
2021/10/07 10:33:32;;;;;;;;;25.50;25.00;;;;;16.35;22.36;102952.97;5035787;28;9544;-70
2021/10/07 10:36:31;;;;;;;;;9.00;9.00;;;;;16.38;22.53;102951.50;5042464;28;10084;-71
2021/10/07 10:39:30;;;;;;;;;9.67;9.67;;;;;16.66;22.44;102947.44;5053744;28;9316;-71
2021/10/07 10:42:15;;;;;;;;;8.67;8.67;;;;;16.45;21.59;102963.06;5055253;28;9259;-71
2021/10/07 10:45:11;;;;;;;;;8.67;8.67;;;;;16.42;21.47;102940.53;5066277;28;9842;-72
2021/10/07 10:48:06;;;;;;;;;12.33;9.33;;;;;16.87;21.51;102938.59;5070079;28;9237;-71
2021/10/07 10:50:34;;;;;;;;;8.67;8.67;;;;;16.91;21.20;102936.78;5056842;28;9245;-72
2021/10/07 10:53:29;;;;;;;;;10.33;8.33;;;;;17.41;21.49;102930.94;5040579;28;9272;-72
2021/10/07 10:56:30;;;;;;;;;9.67;9.67;;;;;17.53;22.12;102953.53;5022519;28;9266;-72
2021/10/07 10:59:28;;;;;;;;;35.75;32.25;;;;;16.94;21.04;102942.56;5044962;28;9214;-71
2021/10/07 11:02:24;;;;;;;;;23.67;22.33;;;;;17.31;21.41;102937.63;5055526;28;9610;-72
2021/10/07 11:05:21;;;;;;;;;51.25;26.50;;;;;16.48;21.56;102925.28;5053496;28;9397;-71
2021/10/07 11:08:19;;;;;;;;;15.00;14.67;;;;;17.15;21.67;102930.81;5052778;28;9563;-73
2021/10/07 11:11:28;;;;;;;;;14.33;14.33;;;;;17.42;21.24;102933.41;5052011;28;9074;-73
2021/10/07 11:14:24;;;;;;;;;12.67;11.00;;;;;16.97;21.65;102929.09;5054069;28;9252;-70
2021/10/07 11:17:21;;;;;;;;;30.75;27.50;;;;;16.86;21.23;102922.94;5051293;28;10020;-72
2021/10/07 11:19:49;;;;;;;;;12.00;10.25;;;;;16.74;21.46;102936.69;5053755;28;9557;-71
2021/10/07 11:22:16;;;;;;;;;9.67;9.67;;;;;16.83;21.48;102924.41;5037240;28;9626;-72
2021/10/07 11:24:50;;;;;;;;;5.33;5.33;;;;;17.11;21.76;102925.06;5037637;28;9186;-72
2021/10/07 11:27:34;;;;;;;;;7.00;7.00;;;;;17.21;21.40;102927.56;5054743;28;9093;-73
2021/10/07 11:30:06;;;;;;;;;6.25;6.25;;;;;17.82;21.68;102919.41;5054200;28;9013;-72
2021/10/07 11:32:35;;;;;;;;;16.00;15.00;;;;;17.72;21.64;102928.13;5039562;28;8835;-72
2021/10/07 11:35:32;;;;;;;;;7.67;7.67;;;;;16.91;22.25;102917.22;5053645;28;9178;-71
2021/10/07 11:38:28;;;;;;;;;12.33;11.67;;;;;16.87;21.74;102925.44;5053597;28;9431;-71
2021/10/07 11:41:33;;;;;;;;;9.67;8.67;;;;;17.15;22.22;102926.06;5054363;28;9183;-73
2021/10/07 11:44:03;;;;;;;;;9.67;9.67;;;;;16.96;21.76;102925.47;5054734;28;9194;-73
2021/10/07 11:46:35;;;;;;;;;6.00;6.00;;;;;17.08;21.95;102930.47;5054418;28;9176;-72
2021/10/07 11:49:03;;;;;;;;;13.00;11.00;;;;;17.57;21.13;102920.13;5054425;28;9234;-72
2021/10/07 11:51:32;;;;;;;;;29.50;27.50;;;;;17.07;21.97;102920.41;5054605;28;9150;-72
2021/10/07 11:54:04;;;;;;;;;30.75;29.00;;;;;17.43;21.87;102925.84;5053327;28;9653;-71
2021/10/07 11:56:36;;;;;;;;;15.67;15.00;;;;;17.24;21.83;102924.13;5053180;28;9695;-71
2021/10/07 11:59:18;;;;;;;;;4.33;4.33;;;;;17.21;21.72;102923.94;5052855;28;9346;-71
2021/10/07 12:02:11;;;;;;;;;5.00;4.50;;;;;17.56;21.52;102919.31;5054349;28;9040;-71
2021/10/07 12:05:18;;;;;;;;;5.25;5.25;;;;;17.54;22.20;102917.97;5053193;28;8824;-71
2021/10/07 12:08:09;;;;;;;;;16.00;14.00;;;;;17.56;21.78;102918.47;5036602;28;8855;-71
2021/10/07 12:10:57;;;;;;;;;12.00;11.25;;;;;17.47;21.39;102919.25;5064456;28;9206;-71
2021/10/07 12:13:56;;;;;;;;;13.00;13.00;;;;;17.19;21.94;102910.28;5048230;28;8860;-72
2021/10/07 12:16:52;;;;;;;;;14.00;14.00;;;;;17.28;22.46;102917.91;5048389;28;9151;-73
2021/10/07 12:19:49;;;;;;;;;16.67;16.00;;;;;17.16;22.45;102915.69;5047789;28;9037;-72
2021/10/07 12:22:45;;;;;;;;;11.00;10.67;;;;;17.31;22.43;102911.66;5048196;28;9195;-72
2021/10/07 12:25:43;;;;;;;;;9.67;9.33;;;;;17.68;21.96;102919.50;5049167;28;9186;-72
2021/10/07 12:28:19;;;;;;;;;6.25;5.25;;;;;17.21;21.85;102915.56;5052690;28;9343;-71
2021/10/07 12:30:51;;;;;;;;;5.33;5.33;;;;;17.23;21.69;102908.50;5053814;28;8844;-70
2021/10/07 12:34:10;;;;;;;;;8.00;8.00;;;;;17.49;21.59;102908.59;5039285;28;9025;-70
2021/10/07 12:37:11;;;;;;;;;10.67;9.00;;;;;17.48;20.88;102900.50;5051505;28;8952;-69
2021/10/07 12:39:42;;;;;;;;;14.00;12.67;;;;;17.53;21.05;102897.56;5052973;28;9014;-70
2021/10/07 12:42:46;;;;;;;;;12.67;12.67;;;;;17.27;21.26;102891.91;5032476;28;9128;-69
2021/10/07 12:46:02;;;;;;;;;7.00;7.00;;;;;17.32;21.55;102894.53;5032379;28;9111;-71
2021/10/07 12:48:59;;;;;;;;;10.33;8.33;;;;;17.00;21.37;102897.69;5034525;28;8824;-71
2021/10/07 12:51:55;;;;;;;;;17.67;17.33;;;;;17.00;21.57;102904.09;5032803;28;8945;-70
2021/10/07 12:54:28;;;;;;;;;9.00;8.33;;;;;16.78;22.44;102896.59;5034833;28;9230;-70
2021/10/07 12:57:33;;;;;;;;;13.00;13.00;;;;;16.72;21.97;102889.50;5032671;28;9501;-70
2021/10/07 13:00:32;;;;;;;;;19.00;17.00;;;;;16.55;22.30;102884.56;5047897;28;9157;-70